Time,TemperatureF,DewpointF,PressureIn,WindDirection,WindDirectionDegrees,WindSpeedMPH,WindSpeedGustMPH,Humidity,HourlyPrecipIn,Conditions,Clouds,dailyrainin,SoftwareType,DateUTC
2013-03-13 00:07:00,43.0,31.7,29.99,North,360,0.0,0.0,64,0.00,,CLR,0.00,VWS V14.01,2013-03-13 04:07:00,
2013-03-13 00:08:00,42.8,31.9,29.99,North,360,0.0,0.0,65,0.00,,CLR,0.00,VWS V14.01,2013-03-13 04:08:00,
2013-03-13 00:13:00,42.8,31.9,29.99,North,360,0.0,0.0,65,0.00,,CLR,0.00,VWS V14.01,2013-03-13 04:13:00,
2013-03-13 00:18:00,42.8,31.9,29.99,North,360,0.0,0.0,65,0.00,,CLR,0.00,VWS V14.01,2013-03-13 04:18:00,
2013-03-13 00:26:00,42.8,31.5,29.99,North,360,0.0,0.0,64,0.00,,CLR,0.00,VWS V14.01,2013-03-13 04:26:00,
2013-03-13 00:33:00,42.7,31.8,29.99,North,360,0.0,0.0,65,0.00,,CLR,0.00,VWS V14.01,2013-03-13 04:33:00,
2013-03-13 00:43:00,42.6,30.9,29.99,North,360,0.0,0.0,63,0.00,,CLR,0.00,VWS V14.01,2013-03-13 04:43:00,
2013-03-13 00:48:00,42.5,30.8,29.99,North,360,0.0,0.0,63,0.00,,CLR,0.00,VWS V14.01,2013-03-13 04:48:00,
2013-03-13 00:58:00,42.4,31.1,29.99,North,360,0.0,0.0,64,0.00,,BKN044,0.00,VWS V14.01,2013-03-13 04:58:00,
2013-03-13 01:03:00,42.2,31.3,29.99,North,360,0.0,0.0,65,0.00,,BKN044,0.00,VWS V14.01,2013-03-13 05:03:00,
2013-03-13 01:08:00,42.1,30.8,29.99,North,360,0.0,0.0,64,0.00,,BKN044,0.00,VWS V14.01,2013-03-13 05:08:00,
2013-03-13 01:13:00,42.0,30.7,29.99,North,360,0.0,0.0,64,0.00,,BKN044,0.00,VWS V14.01,2013-03-13 05:13:00,
2013-03-13 01:18:00,41.9,31.0,29.99,North,360,0.0,0.0,65,0.00,,BKN044,0.00,VWS V14.01,2013-03-13 05:18:00,
2013-03-13 01:28:00,42.1,30.0,29.99,North,360,0.0,0.0,62,0.00,,BKN044,0.00,VWS V14.01,2013-03-13 05:28:00,
2013-03-13 01:33:00,42.2,29.6,29.99,North,360,0.0,0.0,61,0.00,,BKN044,0.00,VWS V14.01,2013-03-13 05:33:00,
2013-03-13 01:43:00,42.0,29.5,29.99,North,360,0.0,0.0,61,0.00,,BKN044,0.00,VWS V14.01,2013-03-13 05:43:00,
2013-03-13 01:48:00,41.9,29.4,29.99,North,360,0.0,0.0,61,0.00,,BKN044,0.00,VWS V14.01,2013-03-13 05:48:00,
2013-03-13 01:58:00,41.7,29.2,29.99,North,360,0.0,0.0,61,0.00,,SCT044,0.00,VWS V14.01,2013-03-13 05:58:00,
2013-03-13 02:08:00,41.6,29.1,29.99,North,360,0.0,0.0,61,0.00,,SCT044,0.00,VWS V14.01,2013-03-13 06:08:00,
2013-03-13 02:13:00,41.5,29.4,29.99,North,360,0.0,0.0,62,0.00,,SCT044,0.00,VWS V14.01,2013-03-13 06:13:00,
2013-03-13 02:18:00,41.6,29.1,29.99,North,360,0.0,0.0,61,0.00,,SCT044,0.00,VWS V14.01,2013-03-13 06:18:00,
2013-03-13 02:23:00,41.4,28.9,29.99,North,360,0.0,0.0,61,0.00,,SCT044,0.00,VWS V14.01,2013-03-13 06:23:00,
2013-03-13 02:28:00,41.3,28.8,29.99,North,360,0.0,0.0,61,0.00,,SCT044,0.00,VWS V14.01,2013-03-13 06:28:00,
2013-03-13 02:38:00,41.1,29.0,29.99,North,360,0.0,0.0,62,0.00,,SCT044,0.00,VWS V14.01,2013-03-13 06:38:00,
2013-03-13 02:43:00,41.0,29.4,29.99,North,360,0.0,0.0,63,0.00,,SCT044,0.00,VWS V14.01,2013-03-13 06:43:00,
2013-03-13 02:48:00,41.0,28.9,29.99,North,360,0.0,0.0,62,0.00,,SCT044,0.00,VWS V14.01,2013-03-13 06:48:00,
2013-03-13 02:53:00,41.0,29.4,29.99,North,360,0.0,0.0,63,0.00,,SCT044,0.00,VWS V14.01,2013-03-13 06:53:00,
2013-03-13 03:07:00,41.0,28.9,29.99,North,360,0.0,0.0,62,0.00,,FEW044,0.00,VWS V14.01,2013-03-13 07:07:00,
2013-03-13 03:13:00,40.8,29.2,29.99,North,360,0.0,0.0,63,0.00,,FEW044,0.00,VWS V14.01,2013-03-13 07:13:00,
2013-03-13 03:18:00,40.8,28.7,29.99,North,360,0.0,0.0,62,0.00,,FEW044,0.00,VWS V14.01,2013-03-13 07:18:00,
2013-03-13 03:28:00,40.4,28.8,29.99,North,360,0.0,0.0,63,0.00,,FEW044,0.00,VWS V14.01,2013-03-13 07:28:00,
2013-03-13 03:33:00,40.2,29.4,29.99,North,360,0.0,0.0,65,0.00,,FEW044,0.00,VWS V14.01,2013-03-13 07:33:00,
2013-03-13 03:38:00,39.9,28.7,29.99,North,360,0.0,0.0,64,0.00,,FEW044,0.00,VWS V14.01,2013-03-13 07:38:00,
2013-03-13 03:43:00,39.8,29.0,29.98,North,360,0.0,0.0,65,0.00,,FEW044,0.00,VWS V14.01,2013-03-13 07:43:00,
2013-03-13 03:48:00,39.6,28.4,29.99,North,360,0.0,0.0,64,0.00,,FEW044,0.00,VWS V14.01,2013-03-13 07:48:00,
2013-03-13 03:53:00,39.7,28.5,29.98,North,360,0.0,0.0,64,0.00,,FEW044,0.00,VWS V14.01,2013-03-13 07:53:00,
2013-03-13 04:03:00,39.7,28.5,29.98,North,360,0.0,0.0,64,0.00,,BKN130,0.00,VWS V14.01,2013-03-13 08:03:00,
2013-03-13 04:13:00,39.5,28.3,29.98,North,360,0.0,0.0,64,0.00,,BKN130,0.00,VWS V14.01,2013-03-13 08:13:00,
2013-03-13 04:18:00,39.5,28.3,29.98,North,360,0.0,0.0,64,0.00,,BKN130,0.00,VWS V14.01,2013-03-13 08:18:00,
2013-03-13 04:26:00,39.6,28.4,29.98,North,360,0.0,0.0,64,0.00,,BKN130,0.00,VWS V14.01,2013-03-13 08:26:00,
2013-03-13 04:33:00,39.6,29.2,29.97,North,360,0.0,0.0,66,0.00,,BKN130,0.00,VWS V14.01,2013-03-13 08:33:00,
2013-03-13 04:38:00,39.5,28.3,29.98,North,360,0.0,0.0,64,0.00,,BKN130,0.00,VWS V14.01,2013-03-13 08:38:00,
2013-03-13 04:48:00,39.2,28.0,29.98,North,360,0.0,0.0,64,0.00,,BKN130,0.00,VWS V14.01,2013-03-13 08:48:00,
2013-03-13 04:54:00,39.2,28.8,29.98,North,360,0.0,0.0,66,0.00,,BKN130,0.00,VWS V14.01,2013-03-13 08:54:00,
2013-03-13 05:03:00,39.0,29.0,29.98,North,360,0.0,0.0,67,0.00,,BKN130,0.00,VWS V14.01,2013-03-13 09:03:00,
2013-03-13 05:08:00,39.0,29.4,29.98,North,360,0.0,0.0,68,0.00,,BKN130,0.00,VWS V14.01,2013-03-13 09:08:00,
2013-03-13 05:18:00,38.7,28.8,29.98,North,360,0.0,0.0,67,0.00,,BKN130,0.00,VWS V14.01,2013-03-13 09:18:00,
2013-03-13 05:23:00,38.6,29.0,29.98,North,360,0.0,0.0,68,0.00,,BKN130,0.00,VWS V14.01,2013-03-13 09:23:00,
2013-03-13 05:33:00,38.4,28.9,29.98,North,360,0.0,0.0,68,0.00,,BKN130,0.00,VWS V14.01,2013-03-13 09:33:00,
2013-03-13 05:39:00,38.4,28.9,29.98,North,360,0.0,0.0,68,0.00,,BKN130,0.00,VWS V14.01,2013-03-13 09:39:00,
2013-03-13 05:48:00,38.3,28.8,29.98,North,360,0.0,0.0,68,0.00,,BKN130,0.00,VWS V14.01,2013-03-13 09:48:00,
2013-03-13 05:53:00,38.2,29.0,29.98,North,360,0.0,0.0,69,0.00,,BKN130,0.00,VWS V14.01,2013-03-13 09:53:00,
2013-03-13 05:58:00,38.1,29.3,29.98,North,360,0.0,0.0,70,0.00,,BKN130,0.00,VWS V14.01,2013-03-13 09:58:00,
2013-03-13 06:03:00,37.9,29.1,29.98,North,360,0.0,0.0,70,0.00,,BKN130,0.00,VWS V14.01,2013-03-13 10:03:00,
2013-03-13 06:08:00,38.0,29.2,29.98,North,360,0.0,0.0,70,0.00,,BKN130,0.00,VWS V14.01,2013-03-13 10:08:00,
2013-03-13 06:18:00,38.1,30.0,29.98,North,360,0.0,0.0,72,0.00,,BKN130,0.00,VWS V14.01,2013-03-13 10:18:00,
2013-03-13 06:28:00,37.9,29.8,29.99,North,360,0.0,0.0,72,0.00,,BKN130,0.00,VWS V14.01,2013-03-13 10:28:00,
2013-03-13 06:33:00,37.8,30.1,29.99,North,360,0.0,0.0,73,0.00,,BKN130,0.00,VWS V14.01,2013-03-13 10:33:00,
2013-03-13 06:38:00,37.6,30.3,29.99,North,360,0.0,0.0,75,0.00,,BKN130,0.00,VWS V14.01,2013-03-13 10:38:00,
2013-03-13 06:43:00,37.5,30.2,29.99,North,360,0.0,0.0,75,0.00,,BKN130,0.00,VWS V14.01,2013-03-13 10:43:00,
2013-03-13 06:48:00,37.3,29.6,29.99,North,360,0.0,0.0,73,0.00,,BKN130,0.00,VWS V14.01,2013-03-13 10:48:00,
2013-03-13 06:53:00,37.4,29.4,29.99,North,360,0.0,0.0,72,0.00,,BKN130,0.00,VWS V14.01,2013-03-13 10:53:00,
2013-03-13 06:58:00,37.4,29.4,30.00,North,360,0.0,0.0,72,0.00,,BKN200,0.00,VWS V14.01,2013-03-13 10:58:00,
2013-03-13 07:08:00,37.3,29.6,30.00,North,360,0.0,0.0,73,0.00,,BKN200,0.00,VWS V14.01,2013-03-13 11:08:00,
2013-03-13 07:18:00,37.2,29.5,30.00,North,360,0.0,0.0,73,0.00,,BKN200,0.00,VWS V14.01,2013-03-13 11:18:00,
2013-03-13 07:23:00,37.3,29.6,30.00,North,360,0.0,0.0,73,0.00,,BKN200,0.00,VWS V14.01,2013-03-13 11:23:00,
2013-03-13 07:28:00,37.3,29.6,30.00,North,360,0.0,0.0,73,0.00,,BKN200,0.00,VWS V14.01,2013-03-13 11:28:00,
2013-03-13 07:38:00,37.2,29.9,30.00,North,360,0.0,0.0,75,0.00,,BKN200,0.00,VWS V14.01,2013-03-13 11:38:00,
2013-03-13 07:43:00,37.2,29.9,30.00,North,360,0.0,0.0,75,0.00,,BKN200,0.00,VWS V14.01,2013-03-13 11:43:00,
2013-03-13 07:48:00,37.3,29.6,30.00,North,360,0.0,0.0,73,0.00,,BKN200,0.00,VWS V14.01,2013-03-13 11:48:00,
2013-03-13 07:53:00,37.1,29.8,30.00,North,360,0.0,0.0,75,0.00,,BKN200,0.00,VWS V14.01,2013-03-13 11:53:00,
2013-03-13 08:03:00,37.2,29.5,30.00,North,360,0.0,0.0,73,0.00,,FEW130,0.00,VWS V14.01,2013-03-13 12:03:00,
2013-03-13 08:13:00,37.9,29.8,30.00,North,360,0.0,0.0,72,0.00,,FEW130,0.00,VWS V14.01,2013-03-13 12:13:00,
2013-03-13 08:18:00,38.6,29.8,30.01,North,360,0.0,0.0,70,0.00,,FEW130,0.00,VWS V14.01,2013-03-13 12:18:00,
2013-03-13 08:26:00,39.1,29.5,30.00,North,360,0.0,0.0,68,0.00,,FEW130,0.00,VWS V14.01,2013-03-13 12:26:00,
2013-03-13 08:33:00,39.9,29.1,30.01,North,360,0.0,0.0,65,0.00,,FEW130,0.00,VWS V14.01,2013-03-13 12:33:00,
2013-03-13 08:38:00,40.2,29.4,30.01,North,360,0.0,0.0,65,0.00,,FEW130,0.00,VWS V14.01,2013-03-13 12:38:00,
2013-03-13 08:43:00,40.3,28.7,30.01,North,360,0.0,0.0,63,0.00,,FEW130,0.00,VWS V14.01,2013-03-13 12:43:00,
2013-03-13 08:53:00,40.3,29.1,30.01,North,360,0.0,0.0,64,0.00,,FEW130,0.00,VWS V14.01,2013-03-13 12:53:00,
2013-03-13 09:03:00,40.5,29.7,30.01,North,360,0.0,0.0,65,0.00,,FEW130,0.00,VWS V14.01,2013-03-13 13:03:00,
2013-03-13 09:08:00,41.3,30.8,30.01,North,360,0.0,0.0,66,0.00,,FEW130,0.00,VWS V14.01,2013-03-13 13:08:00,
2013-03-13 09:18:00,42.5,30.8,30.01,North,360,0.0,0.0,63,0.00,,FEW130,0.00,VWS V14.01,2013-03-13 13:18:00,
2013-03-13 09:28:00,43.4,31.2,30.00,North,360,0.0,0.0,62,0.00,,FEW130,0.00,VWS V14.01,2013-03-13 13:28:00,
2013-03-13 09:38:00,43.2,31.4,30.00,North,360,0.0,0.0,63,0.00,,FEW130,0.00,VWS V14.01,2013-03-13 13:38:00,
2013-03-13 09:43:00,43.0,30.8,30.00,North,360,0.0,0.0,62,0.00,,FEW130,0.00,VWS V14.01,2013-03-13 13:43:00,
2013-03-13 09:48:00,43.1,30.9,30.00,North,360,0.0,0.0,62,0.00,,FEW130,0.00,VWS V14.01,2013-03-13 13:48:00,
2013-03-13 09:53:00,43.2,30.6,30.00,North,360,0.0,0.0,61,0.00,,FEW130,0.00,VWS V14.01,2013-03-13 13:53:00,
2013-03-13 09:58:00,43.8,30.7,30.00,North,360,0.0,0.0,60,0.00,,SCT065,0.00,VWS V14.01,2013-03-13 13:58:00,
2013-03-13 10:08:00,44.2,29.8,30.00,North,360,0.0,0.0,57,0.00,,SCT065,0.00,VWS V14.01,2013-03-13 14:08:00,
2013-03-13 10:13:00,44.5,29.1,30.00,North,360,0.0,0.0,54,0.00,,SCT065,0.00,VWS V14.01,2013-03-13 14:13:00,
2013-03-13 10:23:00,45.2,29.3,30.00,North,360,0.0,0.0,53,0.00,,SCT065,0.00,VWS V14.01,2013-03-13 14:23:00,
2013-03-13 10:28:00,45.8,27.8,29.99,North,360,0.0,0.0,49,0.00,,SCT065,0.00,VWS V14.01,2013-03-13 14:28:00,
2013-03-13 10:33:00,46.0,28.5,29.99,North,360,0.0,0.0,50,0.00,,SCT065,0.00,VWS V14.01,2013-03-13 14:33:00,
2013-03-13 10:38:00,45.6,27.6,29.99,North,360,0.0,0.0,49,0.00,,SCT065,0.00,VWS V14.01,2013-03-13 14:38:00,
2013-03-13 10:48:00,45.3,28.9,29.99,North,360,0.0,0.0,52,0.00,,SCT065,0.00,VWS V14.01,2013-03-13 14:48:00,
2013-03-13 10:58:00,46.6,28.5,29.98,North,360,0.0,0.0,49,0.00,,SCT065,0.00,VWS V14.01,2013-03-13 14:58:00,
2013-03-13 11:03:00,47.0,29.9,29.98,North,360,0.0,0.0,51,0.00,,SCT065,0.00,VWS V14.01,2013-03-13 15:03:00,
2013-03-13 11:13:00,47.0,27.8,29.98,North,360,0.0,0.0,47,0.00,,SCT065,0.00,VWS V14.01,2013-03-13 15:13:00,
2013-03-13 11:23:00,48.7,31.0,29.98,North,360,0.0,0.0,50,0.00,,SCT065,0.00,VWS V14.01,2013-03-13 15:23:00,
2013-03-13 11:33:00,48.4,28.0,29.97,North,360,0.0,0.0,45,0.00,,SCT065,0.00,VWS V14.01,2013-03-13 15:33:00,
2013-03-13 11:38:00,49.5,29.6,29.97,North,360,0.0,0.0,46,0.00,,SCT065,0.00,VWS V14.01,2013-03-13 15:38:00,
2013-03-13 11:48:00,49.5,28.4,29.97,North,360,0.0,0.0,44,0.00,,SCT065,0.00,VWS V14.01,2013-03-13 15:48:00,
2013-03-13 11:53:00,48.4,27.4,29.97,North,360,0.0,0.0,44,0.00,,SCT065,0.00,VWS V14.01,2013-03-13 15:53:00,
2013-03-13 11:58:00,47.9,28.7,29.96,North,360,0.0,0.0,47,0.00,,SCT065,0.00,VWS V14.01,2013-03-13 15:58:00,
2013-03-13 12:03:00,47.7,29.0,29.96,North,360,0.0,0.0,48,0.00,,SCT065,0.00,VWS V14.01,2013-03-13 16:03:00,
2013-03-13 12:13:00,48.9,28.5,29.96,North,360,0.0,0.0,45,0.00,,SCT065,0.00,VWS V14.01,2013-03-13 16:13:00,
2013-03-13 12:18:00,48.5,29.2,29.96,North,360,0.0,0.0,47,0.00,,SCT065,0.00,VWS V14.01,2013-03-13 16:18:00,
2013-03-13 12:25:00,48.1,28.3,29.96,North,360,0.0,0.0,46,0.00,,SCT065,0.00,VWS V14.01,2013-03-13 16:25:00,
2013-03-13 12:33:00,49.5,28.4,29.95,North,360,0.0,0.0,44,0.00,,SCT065,0.00,VWS V14.01,2013-03-13 16:33:00,
2013-03-13 12:38:00,50.4,29.8,29.95,North,360,0.0,0.0,45,0.00,,SCT065,0.00,VWS V14.01,2013-03-13 16:38:00,
2013-03-13 12:43:00,50.6,30.0,29.95,North,360,0.0,0.0,45,0.00,,SCT065,0.00,VWS V14.01,2013-03-13 16:43:00,
2013-03-13 12:48:00,50.9,29.7,29.94,North,360,0.0,0.0,44,0.00,,SCT065,0.00,VWS V14.01,2013-03-13 16:48:00,
2013-03-13 12:58:00,49.7,25.5,29.94,North,360,0.0,0.0,39,0.00,,BKN070,0.00,VWS V14.01,2013-03-13 16:58:00,
2013-03-13 13:03:00,48.8,25.3,29.95,North,360,0.0,0.0,40,0.00,,BKN070,0.00,VWS V14.01,2013-03-13 17:03:00,
2013-03-13 13:08:00,48.2,26.0,29.94,North,360,0.0,0.0,42,0.00,,BKN070,0.00,VWS V14.01,2013-03-13 17:08:00,
2013-03-13 13:18:00,47.7,27.9,29.94,North,360,0.0,0.0,46,0.00,,BKN070,0.00,VWS V14.01,2013-03-13 17:18:00,
2013-03-13 13:23:00,47.5,28.8,29.94,North,360,0.0,0.0,48,0.00,,BKN070,0.00,VWS V14.01,2013-03-13 17:23:00,
2013-03-13 13:33:00,46.4,29.4,29.94,North,360,0.0,0.0,51,0.00,,BKN070,0.00,VWS V14.01,2013-03-13 17:33:00,
2013-03-13 13:38:00,47.0,30.9,29.94,North,360,0.0,0.0,53,0.00,,BKN070,0.00,VWS V14.01,2013-03-13 17:38:00,
2013-03-13 13:43:00,47.8,29.1,29.94,North,360,0.0,0.0,48,0.00,,BKN070,0.00,VWS V14.01,2013-03-13 17:43:00,
2013-03-13 13:48:00,47.1,27.9,29.94,North,360,0.0,0.0,47,0.00,,BKN070,0.00,VWS V14.01,2013-03-13 17:48:00,
2013-03-13 13:53:00,47.3,28.1,29.94,North,360,0.0,0.0,47,0.00,,BKN070,0.00,VWS V14.01,2013-03-13 17:53:00,
2013-03-13 13:58:00,46.9,27.2,29.94,North,360,0.0,0.0,46,0.00,,-RA,0.00,VWS V14.01,2013-03-13 17:58:00,
2013-03-13 14:03:00,47.0,27.8,29.94,North,360,0.0,0.0,47,0.00,,-RA,0.00,VWS V14.01,2013-03-13 18:03:00,
2013-03-13 14:08:00,47.2,28.6,29.94,North,360,0.0,0.0,48,0.00,,-RA,0.00,VWS V14.01,2013-03-13 18:08:00,
2013-03-13 14:13:00,48.4,28.6,29.94,North,360,0.0,0.0,46,0.00,,-RA,0.00,VWS V14.01,2013-03-13 18:13:00,
2013-03-13 14:23:00,48.8,27.8,29.93,North,360,0.0,0.0,44,0.00,,-RA,0.00,VWS V14.01,2013-03-13 18:23:00,
2013-03-13 14:28:00,49.2,28.1,29.93,North,360,0.0,0.0,44,0.00,,-RA,0.00,VWS V14.01,2013-03-13 18:28:00,
2013-03-13 14:33:00,49.0,27.4,29.93,North,360,0.0,0.0,43,0.00,,-RA,0.00,VWS V14.01,2013-03-13 18:33:00,
2013-03-13 14:38:00,49.3,27.0,29.93,North,360,0.0,0.0,42,0.00,,-RA,0.00,VWS V14.01,2013-03-13 18:38:00,
2013-03-13 14:43:00,49.0,26.8,29.93,North,360,0.0,0.0,42,0.00,,-RA,0.00,VWS V14.01,2013-03-13 18:43:00,
2013-03-13 14:53:00,49.0,22.8,29.92,North,360,0.0,0.0,35,0.00,,-RA,0.00,VWS V14.01,2013-03-13 18:53:00,
2013-03-13 14:58:00,48.7,21.1,29.92,North,360,0.0,0.0,33,0.00,,BKN080,0.00,VWS V14.01,2013-03-13 18:58:00,
2013-03-13 15:07:00,49.4,20.9,29.92,North,360,0.0,0.0,32,0.00,,BKN080,0.00,VWS V14.01,2013-03-13 19:07:00,
2013-03-13 15:13:00,49.5,19.4,29.92,North,360,0.0,0.0,30,0.00,,BKN080,0.00,VWS V14.01,2013-03-13 19:13:00,
2013-03-13 15:18:00,49.6,18.6,29.92,North,360,0.0,0.0,29,0.00,,BKN080,0.00,VWS V14.01,2013-03-13 19:18:00,
2013-03-13 15:23:00,49.9,19.8,29.92,North,360,0.0,0.0,30,0.00,,BKN080,0.00,VWS V14.01,2013-03-13 19:23:00,
2013-03-13 15:33:00,49.4,19.3,29.92,North,360,0.0,0.0,30,0.00,,BKN080,0.00,VWS V14.01,2013-03-13 19:33:00,
2013-03-13 15:43:00,49.4,17.6,29.92,North,360,0.0,0.0,28,0.00,,BKN080,0.00,VWS V14.01,2013-03-13 19:43:00,
2013-03-13 15:48:00,49.4,18.5,29.92,North,360,0.0,0.0,29,0.00,,BKN080,0.00,VWS V14.01,2013-03-13 19:48:00,
2013-03-13 15:53:00,49.5,17.7,29.92,North,360,0.0,0.0,28,0.00,,BKN080,0.00,VWS V14.01,2013-03-13 19:53:00,
2013-03-13 15:58:00,49.5,16.8,29.92,North,360,0.0,0.0,27,0.00,,BKN250,0.00,VWS V14.01,2013-03-13 19:58:00,
2013-03-13 16:03:00,49.9,17.1,29.92,North,360,0.0,0.0,27,0.00,,BKN250,0.00,VWS V14.01,2013-03-13 20:03:00,
2013-03-13 16:08:00,49.4,16.7,29.92,North,360,0.0,0.0,27,0.00,,BKN250,0.00,VWS V14.01,2013-03-13 20:08:00,
2013-03-13 16:13:00,49.0,17.3,29.92,North,360,0.0,0.0,28,0.00,,BKN250,0.00,VWS V14.01,2013-03-13 20:13:00,
2013-03-13 16:26:00,50.2,18.3,29.92,North,360,0.0,0.0,28,0.00,,BKN250,0.00,VWS V14.01,2013-03-13 20:26:00,
2013-03-13 16:33:00,49.0,17.3,29.92,North,360,0.0,0.0,28,0.00,,BKN250,0.00,VWS V14.01,2013-03-13 20:33:00,
2013-03-13 16:43:00,48.2,17.4,29.92,North,360,0.0,0.0,29,0.00,,BKN250,0.00,VWS V14.01,2013-03-13 20:43:00,
2013-03-13 16:48:00,48.5,17.7,29.92,North,360,0.0,0.0,29,0.00,,BKN250,0.00,VWS V14.01,2013-03-13 20:48:00,
2013-03-13 16:53:00,49.2,19.1,29.92,North,360,0.0,0.0,30,0.00,,BKN250,0.00,VWS V14.01,2013-03-13 20:53:00,
2013-03-13 16:58:00,49.3,17.5,29.92,North,360,0.0,0.0,28,0.00,,OVC250,0.00,VWS V14.01,2013-03-13 20:58:00,
2013-03-13 17:03:00,49.3,17.5,29.92,North,360,0.0,0.0,28,0.00,,OVC250,0.00,VWS V14.01,2013-03-13 21:03:00,
2013-03-13 17:08:00,49.1,17.4,29.92,North,360,0.0,0.0,28,0.00,,OVC250,0.00,VWS V14.01,2013-03-13 21:08:00,
2013-03-13 17:18:00,48.8,17.1,29.93,North,360,0.0,0.0,28,0.00,,OVC250,0.00,VWS V14.01,2013-03-13 21:18:00,
2013-03-13 17:23:00,48.5,18.5,29.93,North,360,0.0,0.0,30,0.00,,OVC250,0.00,VWS V14.01,2013-03-13 21:23:00,
2013-03-13 17:33:00,47.3,19.8,29.94,North,360,0.0,0.0,33,0.00,,OVC250,0.00,VWS V14.01,2013-03-13 21:33:00,
2013-03-13 17:38:00,47.2,20.5,29.94,North,360,0.0,0.0,34,0.00,,OVC250,0.00,VWS V14.01,2013-03-13 21:38:00,
2013-03-13 17:48:00,47.0,21.7,29.94,North,360,0.0,0.0,36,0.00,,OVC250,0.00,VWS V14.01,2013-03-13 21:48:00,
2013-03-13 17:53:00,47.2,22.6,29.95,North,360,0.0,0.0,37,0.00,,OVC250,0.00,VWS V14.01,2013-03-13 21:53:00,
2013-03-13 17:58:00,46.8,22.9,29.95,North,360,0.0,0.0,39,0.00,,BKN250,0.00,VWS V14.01,2013-03-13 21:58:00,
2013-03-13 18:07:00,46.1,22.9,29.95,North,360,0.0,0.0,40,0.00,,BKN250,0.00,VWS V14.01,2013-03-13 22:07:00,
2013-03-13 18:13:00,45.6,21.1,29.96,North,360,0.0,0.0,37,0.00,,BKN250,0.00,VWS V14.01,2013-03-13 22:13:00,
2013-03-13 18:18:00,45.4,22.3,29.96,North,360,0.0,0.0,40,0.00,,BKN250,0.00,VWS V14.01,2013-03-13 22:18:00,
2013-03-13 18:23:00,45.3,23.4,29.96,North,360,0.0,0.0,42,0.00,,BKN250,0.00,VWS V14.01,2013-03-13 22:23:00,
2013-03-13 18:33:00,45.5,24.2,29.96,North,360,0.0,0.0,43,0.00,,BKN250,0.00,VWS V14.01,2013-03-13 22:33:00,
2013-03-13 18:38:00,45.6,23.7,29.96,North,360,0.0,0.0,42,0.00,,BKN250,0.00,VWS V14.01,2013-03-13 22:38:00,
2013-03-13 18:43:00,45.6,23.1,29.97,North,360,0.0,0.0,41,0.00,,BKN250,0.00,VWS V14.01,2013-03-13 22:43:00,
2013-03-13 18:48:00,45.5,23.0,29.97,North,360,0.0,0.0,41,0.00,,BKN250,0.00,VWS V14.01,2013-03-13 22:48:00,
2013-03-13 18:53:00,44.5,25.5,29.98,North,360,0.0,0.0,47,0.00,,BKN250,0.00,VWS V14.01,2013-03-13 22:53:00,
2013-03-13 18:59:00,43.7,26.4,29.99,North,360,0.0,0.0,50,0.00,,BKN250,0.00,VWS V14.01,2013-03-13 22:59:00,
2013-03-13 19:08:00,42.7,26.0,30.00,North,360,0.0,0.0,51,0.00,,BKN250,0.00,VWS V14.01,2013-03-13 23:08:00,
2013-03-13 19:13:00,42.5,26.3,29.99,North,360,0.0,0.0,52,0.00,,BKN250,0.00,VWS V14.01,2013-03-13 23:13:00,
2013-03-13 19:18:00,42.1,25.9,30.00,North,360,0.0,0.0,52,0.00,,BKN250,0.00,VWS V14.01,2013-03-13 23:18:00,
2013-03-13 19:23:00,41.8,24.6,30.00,North,360,0.0,0.0,50,0.00,,BKN250,0.00,VWS V14.01,2013-03-13 23:23:00,
2013-03-13 19:28:00,41.6,24.4,30.00,North,360,0.0,0.0,50,0.00,,BKN250,0.00,VWS V14.01,2013-03-13 23:28:00,
2013-03-13 19:33:00,41.6,24.4,30.00,North,360,0.0,0.0,50,0.00,,BKN250,0.00,VWS V14.01,2013-03-13 23:33:00,
2013-03-13 19:38:00,41.5,24.4,30.00,North,360,0.0,0.0,50,0.00,,BKN250,0.00,VWS V14.01,2013-03-13 23:38:00,
2013-03-13 19:43:00,41.5,24.4,30.01,North,360,0.0,0.0,50,0.00,,BKN250,0.00,VWS V14.01,2013-03-13 23:43:00,
2013-03-13 19:53:00,41.4,23.8,30.01,North,360,0.0,0.0,49,0.00,,BKN250,0.00,VWS V14.01,2013-03-13 23:53:00,
2013-03-13 20:07:00,41.2,23.0,30.02,North,360,0.0,0.0,48,0.00,,BKN250,0.00,VWS V14.01,2013-03-14 00:07:00,
2013-03-13 20:13:00,41.1,23.5,30.02,North,360,0.0,0.0,49,0.00,,BKN250,0.00,VWS V14.01,2013-03-14 00:13:00,
2013-03-13 20:23:00,40.9,23.8,30.03,North,360,0.0,0.0,50,0.00,,BKN250,0.00,VWS V14.01,2013-03-14 00:23:00,
2013-03-13 20:28:00,40.7,23.6,30.03,North,360,0.0,0.0,50,0.00,,BKN250,0.00,VWS V14.01,2013-03-14 00:28:00,
2013-03-13 20:33:00,40.6,23.5,30.03,North,360,0.0,0.0,50,0.00,,BKN250,0.00,VWS V14.01,2013-03-14 00:33:00,
2013-03-13 20:43:00,40.3,23.2,30.03,North,360,0.0,0.0,50,0.00,,BKN250,0.00,VWS V14.01,2013-03-14 00:43:00,
2013-03-13 20:48:00,40.2,23.1,30.03,North,360,0.0,0.0,50,0.00,,BKN250,0.00,VWS V14.01,2013-03-14 00:48:00,
2013-03-13 20:53:00,40.1,23.0,30.04,North,360,0.0,0.0,50,0.00,,BKN250,0.00,VWS V14.01,2013-03-14 00:53:00,
2013-03-13 21:03:00,39.9,22.4,30.04,North,360,0.0,0.0,49,0.00,,SCT250,0.00,VWS V14.01,2013-03-14 01:03:00,
2013-03-13 21:08:00,39.8,22.8,30.05,North,360,0.0,0.0,50,0.00,,SCT250,0.00,VWS V14.01,2013-03-14 01:08:00,
2013-03-13 21:13:00,39.8,21.8,30.05,North,360,0.0,0.0,48,0.00,,SCT250,0.00,VWS V14.01,2013-03-14 01:13:00,
2013-03-13 21:18:00,39.7,22.2,30.05,North,360,0.0,0.0,49,0.00,,SCT250,0.00,VWS V14.01,2013-03-14 01:18:00,
2013-03-13 21:23:00,39.5,22.5,30.05,North,360,0.0,0.0,50,0.00,,SCT250,0.00,VWS V14.01,2013-03-14 01:23:00,
2013-03-13 21:33:00,39.4,20.9,30.05,North,360,0.0,0.0,47,0.00,,SCT250,0.00,VWS V14.01,2013-03-14 01:33:00,
2013-03-13 21:38:00,39.1,21.6,30.05,North,360,0.0,0.0,49,0.00,,SCT250,0.00,VWS V14.01,2013-03-14 01:38:00,
2013-03-13 21:43:00,39.0,21.0,30.05,North,360,0.0,0.0,48,0.00,,SCT250,0.00,VWS V14.01,2013-03-14 01:43:00,
2013-03-13 21:48:00,38.9,21.4,30.06,North,360,0.0,0.0,49,0.00,,SCT250,0.00,VWS V14.01,2013-03-14 01:48:00,
2013-03-13 21:53:00,38.7,19.7,30.06,North,360,0.0,0.0,46,0.00,,SCT250,0.00,VWS V14.01,2013-03-14 01:53:00,
2013-03-13 21:58:00,38.6,17.9,30.07,North,360,0.0,0.0,43,0.00,,FEW090,0.00,VWS V14.01,2013-03-14 01:58:00,
2013-03-13 22:03:00,38.4,17.2,30.07,North,360,0.0,0.0,42,0.00,,FEW090,0.00,VWS V14.01,2013-03-14 02:03:00,
2013-03-13 22:08:00,38.3,17.6,30.07,North,360,0.0,0.0,43,0.00,,FEW090,0.00,VWS V14.01,2013-03-14 02:08:00,
2013-03-13 22:13:00,38.2,18.1,30.07,North,360,0.0,0.0,44,0.00,,FEW090,0.00,VWS V14.01,2013-03-14 02:13:00,
2013-03-13 22:18:00,38.0,18.0,30.08,North,360,0.0,0.0,44,0.00,,FEW090,0.00,VWS V14.01,2013-03-14 02:18:00,
2013-03-13 22:23:00,37.8,17.8,30.07,North,360,0.0,0.0,44,0.00,,FEW090,0.00,VWS V14.01,2013-03-14 02:23:00,
2013-03-13 22:28:00,37.7,17.7,30.08,North,360,0.0,0.0,44,0.00,,FEW090,0.00,VWS V14.01,2013-03-14 02:28:00,
2013-03-13 22:33:00,37.6,17.6,30.08,North,360,0.0,0.0,44,0.00,,FEW090,0.00,VWS V14.01,2013-03-14 02:33:00,
2013-03-13 22:38:00,37.5,18.0,30.08,North,360,0.0,0.0,45,0.00,,FEW090,0.00,VWS V14.01,2013-03-14 02:38:00,
2013-03-13 22:43:00,37.4,18.0,30.08,North,360,0.0,0.0,45,0.00,,FEW090,0.00,VWS V14.01,2013-03-14 02:43:00,
2013-03-13 22:48:00,37.3,18.4,30.08,North,360,0.0,0.0,46,0.00,,FEW090,0.00,VWS V14.01,2013-03-14 02:48:00,
2013-03-13 22:58:00,37.2,18.3,30.08,North,360,0.0,0.0,46,0.00,,FEW080,0.00,VWS V14.01,2013-03-14 02:58:00,
2013-03-13 23:03:00,37.0,18.1,30.08,North,360,0.0,0.0,46,0.00,,FEW080,0.00,VWS V14.01,2013-03-14 03:03:00,
2013-03-13 23:08:00,36.9,18.0,30.09,North,360,0.0,0.0,46,0.00,,FEW080,0.00,VWS V14.01,2013-03-14 03:08:00,
2013-03-13 23:13:00,36.8,18.5,30.09,North,360,0.0,0.0,47,0.00,,FEW080,0.00,VWS V14.01,2013-03-14 03:13:00,
2013-03-13 23:18:00,36.7,18.9,30.08,North,360,0.0,0.0,48,0.00,,FEW080,0.00,VWS V14.01,2013-03-14 03:18:00,
2013-03-13 23:23:00,36.6,18.3,30.09,North,360,0.0,0.0,47,0.00,,FEW080,0.00,VWS V14.01,2013-03-14 03:23:00,
2013-03-13 23:28:00,36.5,19.2,30.09,North,360,0.0,0.0,49,0.00,,FEW080,0.00,VWS V14.01,2013-03-14 03:28:00,
2013-03-13 23:33:00,36.2,19.0,30.09,North,360,0.0,0.0,49,0.00,,FEW080,0.00,VWS V14.01,2013-03-14 03:33:00,
2013-03-13 23:43:00,35.9,19.2,30.09,North,360,0.0,0.0,50,0.00,,FEW080,0.00,VWS V14.01,2013-03-14 03:43:00,
2013-03-13 23:48:00,35.8,19.1,30.09,North,360,0.0,0.0,50,0.00,,FEW080,0.00,VWS V14.01,2013-03-14 03:48:00,
2013-03-13 23:53:00,35.7,19.5,30.09,North,360,0.0,0.0,51,0.00,,FEW080,0.00,VWS V14.01,2013-03-14 03:53:00,
2013-03-13 23:58:00,35.6,19.4,30.09,North,360,0.0,0.0,51,0.00,,FEW100,0.00,VWS V14.01,2013-03-14 03:58:00,